sensor_id;sensor_type;location;lat;lon;timestamp;P1;durP1;ratioP1;P2;durP2;ratioP2
36185;SDS011;22228;53.222;7.446;2023-01-28T00:02:18;4.00;;;3.70;;
36185;SDS011;22228;53.222;7.446;2023-01-28T00:04:41;4.10;;;3.90;;
36185;SDS011;22228;53.222;7.446;2023-01-28T00:07:03;3.67;;;3.43;;
36185;SDS011;22228;53.222;7.446;2023-01-28T00:09:24;3.93;;;3.73;;
36185;SDS011;22228;53.222;7.446;2023-01-28T00:11:48;3.70;;;3.50;;
36185;SDS011;22228;53.222;7.446;2023-01-28T00:14:10;3.83;;;3.53;;
36185;SDS011;22228;53.222;7.446;2023-01-28T00:16:32;3.27;;;3.07;;
36185;SDS011;22228;53.222;7.446;2023-01-28T00:18:55;3.50;;;3.30;;
36185;SDS011;22228;53.222;7.446;2023-01-28T00:21:16;3.90;;;3.60;;
36185;SDS011;22228;53.222;7.446;2023-01-28T00:23:49;4.07;;;3.87;;
36185;SDS011;22228;53.222;7.446;2023-01-28T00:26:14;4.27;;;3.93;;
36185;SDS011;22228;53.222;7.446;2023-01-28T00:28:38;4.70;;;4.37;;
36185;SDS011;22228;53.222;7.446;2023-01-28T00:31:49;4.60;;;4.30;;
36185;SDS011;22228;53.222;7.446;2023-01-28T00:34:09;5.17;;;4.10;;
36185;SDS011;22228;53.222;7.446;2023-01-28T00:39:51;4.23;;;3.93;;
36185;SDS011;22228;53.222;7.446;2023-01-28T00:42:13;4.20;;;4.00;;
36185;SDS011;22228;53.222;7.446;2023-01-28T00:44:34;4.40;;;4.07;;
36185;SDS011;22228;53.222;7.446;2023-01-28T00:47:02;4.53;;;4.33;;
36185;SDS011;22228;53.222;7.446;2023-01-28T00:49:23;4.90;;;4.50;;
36185;SDS011;22228;53.222;7.446;2023-01-28T00:51:45;4.90;;;4.60;;
36185;SDS011;22228;53.222;7.446;2023-01-28T00:54:16;5.00;;;4.70;;
36185;SDS011;22228;53.222;7.446;2023-01-28T01:00:13;4.33;;;4.10;;
36185;SDS011;22228;53.222;7.446;2023-01-28T01:02:35;4.53;;;4.13;;
36185;SDS011;22228;53.222;7.446;2023-01-28T01:04:57;4.47;;;4.23;;
36185;SDS011;22228;53.222;7.446;2023-01-28T01:07:20;4.93;;;4.53;;
36185;SDS011;22228;53.222;7.446;2023-01-28T01:13:39;4.47;;;4.27;;
36185;SDS011;22228;53.222;7.446;2023-01-28T04:07:17;8.77;;;7.87;;
36185;SDS011;22228;53.222;7.446;2023-01-28T04:10:00;7.57;;;7.07;;
36185;SDS011;22228;53.222;7.446;2023-01-28T04:12:39;8.77;;;8.07;;
36185;SDS011;22228;53.222;7.446;2023-01-28T04:15:26;8.10;;;7.50;;
36185;SDS011;22228;53.222;7.446;2023-01-28T04:17:51;7.63;;;7.07;;
36185;SDS011;22228;53.222;7.446;2023-01-28T04:20:21;7.97;;;7.37;;
36185;SDS011;22228;53.222;7.446;2023-01-28T04:22:42;8.33;;;7.73;;
36185;SDS011;22228;53.222;7.446;2023-01-28T04:25:29;8.17;;;7.57;;
36185;SDS011;22228;53.222;7.446;2023-01-28T04:27:54;7.47;;;6.87;;
36185;SDS011;22228;53.222;7.446;2023-01-28T04:30:18;8.30;;;7.70;;
36185;SDS011;22228;53.222;7.446;2023-01-28T04:33:09;8.30;;;7.60;;
36185;SDS011;22228;53.222;7.446;2023-01-28T04:35:49;8.57;;;7.87;;
36185;SDS011;22228;53.222;7.446;2023-01-28T04:41:32;8.40;;;7.70;;
36185;SDS011;22228;53.222;7.446;2023-01-28T04:43:59;8.73;;;7.93;;
36185;SDS011;22228;53.222;7.446;2023-01-28T04:46:28;8.37;;;7.77;;
36185;SDS011;22228;53.222;7.446;2023-01-28T04:49:14;9.20;;;8.20;;
36185;SDS011;22228;53.222;7.446;2023-01-28T04:51:58;9.47;;;8.67;;
36185;SDS011;22228;53.222;7.446;2023-01-28T04:54:39;9.10;;;8.40;;
36185;SDS011;22228;53.222;7.446;2023-01-28T04:57:00;7.90;;;7.30;;
36185;SDS011;22228;53.222;7.446;2023-01-28T05:02:08;8.30;;;7.50;;
36185;SDS011;22228;53.222;7.446;2023-01-28T05:05:23;10.33;;;9.43;;
36185;SDS011;22228;53.222;7.446;2023-01-28T05:08:15;9.77;;;9.07;;
36185;SDS011;22228;53.222;7.446;2023-01-28T05:11:07;9.60;;;8.90;;
36185;SDS011;22228;53.222;7.446;2023-01-28T05:13:29;10.43;;;9.43;;
36185;SDS011;22228;53.222;7.446;2023-01-28T05:15:54;9.87;;;9.03;;
36185;SDS011;22228;53.222;7.446;2023-01-28T05:18:15;10.20;;;9.30;;
36185;SDS011;22228;53.222;7.446;2023-01-28T05:20:44;9.00;;;8.20;;
36185;SDS011;22228;53.222;7.446;2023-01-28T05:23:06;9.53;;;8.73;;
36185;SDS011;22228;53.222;7.446;2023-01-28T05:25:42;9.67;;;8.77;;
36185;SDS011;22228;53.222;7.446;2023-01-28T05:28:04;10.37;;;9.43;;
36185;SDS011;22228;53.222;7.446;2023-01-28T05:30:32;9.97;;;9.07;;
36185;SDS011;22228;53.222;7.446;2023-01-28T05:32:56;10.67;;;9.70;;
36185;SDS011;22228;53.222;7.446;2023-01-28T05:35:18;10.53;;;9.70;;
36185;SDS011;22228;53.222;7.446;2023-01-28T05:38:05;10.20;;;9.40;;
36185;SDS011;22228;53.222;7.446;2023-01-28T05:40:26;10.20;;;9.20;;
36185;SDS011;22228;53.222;7.446;2023-01-28T05:42:47;10.50;;;9.67;;
36185;SDS011;22228;53.222;7.446;2023-01-28T05:48:01;10.83;;;9.93;;
36185;SDS011;22228;53.222;7.446;2023-01-28T05:50:39;11.13;;;9.60;;
36185;SDS011;22228;53.222;7.446;2023-01-28T05:53:11;10.77;;;9.77;;
36185;SDS011;22228;53.222;7.446;2023-01-28T05:55:37;11.30;;;9.00;;
36185;SDS011;22228;53.222;7.446;2023-01-28T05:57:58;11.87;;;10.67;;
36185;SDS011;22228;53.222;7.446;2023-01-28T06:00:19;9.83;;;8.83;;
36185;SDS011;22228;53.222;7.446;2023-01-28T06:03:12;11.30;;;10.13;;
36185;SDS011;22228;53.222;7.446;2023-01-28T06:05:37;11.00;;;9.90;;
36185;SDS011;22228;53.222;7.446;2023-01-28T06:07:59;11.00;;;10.07;;
36185;SDS011;22228;53.222;7.446;2023-01-28T06:10:21;10.77;;;9.87;;
36185;SDS011;22228;53.222;7.446;2023-01-28T06:12:43;11.57;;;10.47;;
36185;SDS011;22228;53.222;7.446;2023-01-28T06:15:33;11.80;;;10.80;;
36185;SDS011;22228;53.222;7.446;2023-01-28T06:18:06;12.27;;;10.97;;
36185;SDS011;22228;53.222;7.446;2023-01-28T06:20:27;12.20;;;11.00;;
36185;SDS011;22228;53.222;7.446;2023-01-28T06:22:50;12.53;;;11.43;;
36185;SDS011;22228;53.222;7.446;2023-01-28T06:25:11;12.47;;;11.20;;
36185;SDS011;22228;53.222;7.446;2023-01-28T06:27:40;12.10;;;11.00;;
36185;SDS011;22228;53.222;7.446;2023-01-28T06:30:03;11.67;;;10.63;;
36185;SDS011;22228;53.222;7.446;2023-01-28T06:32:24;12.80;;;11.70;;
36185;SDS011;22228;53.222;7.446;2023-01-28T06:34:46;11.60;;;10.60;;
36185;SDS011;22228;53.222;7.446;2023-01-28T06:37:11;12.40;;;11.23;;
36185;SDS011;22228;53.222;7.446;2023-01-28T06:39:31;11.70;;;10.50;;
36185;SDS011;22228;53.222;7.446;2023-01-28T06:47:13;13.27;;;11.87;;
36185;SDS011;22228;53.222;7.446;2023-01-28T06:49:33;12.27;;;11.10;;
36185;SDS011;22228;53.222;7.446;2023-01-28T06:52:20;12.70;;;11.50;;
36185;SDS011;22228;53.222;7.446;2023-01-28T06:54:43;12.63;;;11.47;;
36185;SDS011;22228;53.222;7.446;2023-01-28T06:57:36;13.40;;;12.17;;
36185;SDS011;22228;53.222;7.446;2023-01-28T07:00:24;11.90;;;10.90;;
36185;SDS011;22228;53.222;7.446;2023-01-28T07:02:45;12.07;;;10.97;;
36185;SDS011;22228;53.222;7.446;2023-01-28T07:05:31;11.77;;;10.77;;
36185;SDS011;22228;53.222;7.446;2023-01-28T07:07:55;12.53;;;11.43;;
36185;SDS011;22228;53.222;7.446;2023-01-28T07:10:23;11.47;;;10.47;;
36185;SDS011;22228;53.222;7.446;2023-01-28T07:12:44;12.80;;;11.60;;
36185;SDS011;22228;53.222;7.446;2023-01-28T07:15:07;12.13;;;10.93;;
36185;SDS011;22228;53.222;7.446;2023-01-28T07:17:30;15.63;;;11.83;;
36185;SDS011;22228;53.222;7.446;2023-01-28T07:19:51;15.63;;;14.33;;
36185;SDS011;22228;53.222;7.446;2023-01-28T07:22:13;14.67;;;12.50;;
36185;SDS011;22228;53.222;7.446;2023-01-28T07:24:33;13.77;;;12.37;;
36185;SDS011;22228;53.222;7.446;2023-01-28T07:26:56;14.27;;;12.87;;
36185;SDS011;22228;53.222;7.446;2023-01-28T07:29:18;13.83;;;12.50;;
36185;SDS011;22228;53.222;7.446;2023-01-28T07:31:39;14.57;;;12.40;;
36185;SDS011;22228;53.222;7.446;2023-01-28T07:34:02;15.63;;;14.07;;
36185;SDS011;22228;53.222;7.446;2023-01-28T07:36:26;15.03;;;13.63;;
36185;SDS011;22228;53.222;7.446;2023-01-28T07:38:48;14.23;;;13.03;;
36185;SDS011;22228;53.222;7.446;2023-01-28T07:41:09;15.27;;;13.80;;
36185;SDS011;22228;53.222;7.446;2023-01-28T07:43:30;16.90;;;15.20;;
36185;SDS011;22228;53.222;7.446;2023-01-28T07:45:53;19.37;;;17.37;;
36185;SDS011;22228;53.222;7.446;2023-01-28T07:48:15;19.73;;;17.83;;
36185;SDS011;22228;53.222;7.446;2023-01-28T07:50:38;22.90;;;20.03;;
36185;SDS011;22228;53.222;7.446;2023-01-28T07:53:02;23.93;;;21.43;;
36185;SDS011;22228;53.222;7.446;2023-01-28T07:55:28;23.23;;;20.93;;
36185;SDS011;22228;53.222;7.446;2023-01-28T07:57:51;23.23;;;20.77;;
36185;SDS011;22228;53.222;7.446;2023-01-28T08:00:14;23.57;;;20.70;;
36185;SDS011;22228;53.222;7.446;2023-01-28T08:03:00;27.50;;;24.57;;
36185;SDS011;22228;53.222;7.446;2023-01-28T08:05:49;24.80;;;22.27;;
36185;SDS011;22228;53.222;7.446;2023-01-28T08:08:12;23.43;;;20.80;;
36185;SDS011;22228;53.222;7.446;2023-01-28T08:10:32;23.27;;;20.87;;
36185;SDS011;22228;53.222;7.446;2023-01-28T08:13:19;21.73;;;19.43;;
36185;SDS011;22228;53.222;7.446;2023-01-28T08:15:40;22.73;;;20.00;;
36185;SDS011;22228;53.222;7.446;2023-01-28T08:18:05;26.10;;;23.30;;
36185;SDS011;22228;53.222;7.446;2023-01-28T08:20:35;22.17;;;19.83;;
36185;SDS011;22228;53.222;7.446;2023-01-28T08:23:05;18.77;;;16.77;;
36185;SDS011;22228;53.222;7.446;2023-01-28T08:25:26;18.40;;;16.50;;
36185;SDS011;22228;53.222;7.446;2023-01-28T08:27:48;20.67;;;18.47;;
36185;SDS011;22228;53.222;7.446;2023-01-28T08:32:57;17.60;;;15.80;;
36185;SDS011;22228;53.222;7.446;2023-01-28T08:35:19;17.50;;;15.83;;
36185;SDS011;22228;53.222;7.446;2023-01-28T08:37:41;18.03;;;16.23;;
36185;SDS011;22228;53.222;7.446;2023-01-28T08:40:03;17.63;;;15.50;;
36185;SDS011;22228;53.222;7.446;2023-01-28T08:42:29;18.93;;;16.03;;
36185;SDS011;22228;53.222;7.446;2023-01-28T08:47:36;16.77;;;15.17;;
36185;SDS011;22228;53.222;7.446;2023-01-28T08:49:57;16.03;;;14.23;;
36185;SDS011;22228;53.222;7.446;2023-01-28T08:52:19;16.70;;;15.10;;
36185;SDS011;22228;53.222;7.446;2023-01-28T08:54:42;15.87;;;14.27;;
36185;SDS011;22228;53.222;7.446;2023-01-28T08:57:06;14.53;;;13.13;;
36185;SDS011;22228;53.222;7.446;2023-01-28T08:59:27;14.90;;;13.40;;
36185;SDS011;22228;53.222;7.446;2023-01-28T09:01:49;12.93;;;11.70;;
36185;SDS011;22228;53.222;7.446;2023-01-28T09:04:11;12.77;;;11.47;;
36185;SDS011;22228;53.222;7.446;2023-01-28T09:06:38;15.20;;;13.77;;
36185;SDS011;22228;53.222;7.446;2023-01-28T09:09:04;12.07;;;10.97;;
36185;SDS011;22228;53.222;7.446;2023-01-28T09:11:49;11.13;;;9.93;;
36185;SDS011;22228;53.222;7.446;2023-01-28T09:14:35;11.17;;;10.10;;
36185;SDS011;22228;53.222;7.446;2023-01-28T09:16:56;11.70;;;10.27;;
36185;SDS011;22228;53.222;7.446;2023-01-28T09:19:17;12.13;;;10.53;;
36185;SDS011;22228;53.222;7.446;2023-01-28T09:21:38;11.13;;;9.83;;
36185;SDS011;22228;53.222;7.446;2023-01-28T09:26:47;10.97;;;9.87;;
36185;SDS011;22228;53.222;7.446;2023-01-28T09:29:08;12.07;;;9.77;;
36185;SDS011;22228;53.222;7.446;2023-01-28T09:34:17;11.03;;;9.93;;
36185;SDS011;22228;53.222;7.446;2023-01-28T09:36:39;11.17;;;10.03;;
36185;SDS011;22228;53.222;7.446;2023-01-28T09:39:01;10.67;;;9.70;;
36185;SDS011;22228;53.222;7.446;2023-01-28T09:41:25;13.77;;;10.57;;
36185;SDS011;22228;53.222;7.446;2023-01-28T09:44:18;11.37;;;10.27;;
36185;SDS011;22228;53.222;7.446;2023-01-28T09:46:52;10.87;;;9.77;;
36185;SDS011;22228;53.222;7.446;2023-01-28T09:49:22;11.13;;;8.60;;
36185;SDS011;22228;53.222;7.446;2023-01-28T09:51:49;10.43;;;8.70;;
36185;SDS011;22228;53.222;7.446;2023-01-28T09:54:16;9.30;;;8.40;;
36185;SDS011;22228;53.222;7.446;2023-01-28T09:56:45;10.10;;;9.17;;
36185;SDS011;22228;53.222;7.446;2023-01-28T09:59:14;9.57;;;8.53;;
36185;SDS011;22228;53.222;7.446;2023-01-28T10:01:53;8.83;;;7.97;;
36185;SDS011;22228;53.222;7.446;2023-01-28T10:04:21;9.37;;;8.10;;
36185;SDS011;22228;53.222;7.446;2023-01-28T10:07:23;8.87;;;8.07;;
36185;SDS011;22228;53.222;7.446;2023-01-28T10:09:56;8.67;;;7.77;;
36185;SDS011;22228;53.222;7.446;2023-01-28T10:12:30;9.87;;;7.33;;
36185;SDS011;22228;53.222;7.446;2023-01-28T10:15:09;8.57;;;7.67;;
36185;SDS011;22228;53.222;7.446;2023-01-28T10:17:44;10.23;;;7.67;;
36185;SDS011;22228;53.222;7.446;2023-01-28T10:20:15;7.27;;;6.67;;
36185;SDS011;22228;53.222;7.446;2023-01-28T10:22:41;8.20;;;7.40;;
36185;SDS011;22228;53.222;7.446;2023-01-28T10:25:31;8.33;;;7.43;;
36185;SDS011;22228;53.222;7.446;2023-01-28T10:27:54;8.07;;;7.37;;
36185;SDS011;22228;53.222;7.446;2023-01-28T10:30:15;9.07;;;7.47;;
36185;SDS011;22228;53.222;7.446;2023-01-28T10:33:03;7.27;;;6.53;;
36185;SDS011;22228;53.222;7.446;2023-01-28T10:35:32;8.03;;;6.33;;
36185;SDS011;22228;53.222;7.446;2023-01-28T10:41:16;6.83;;;6.23;;
36185;SDS011;22228;53.222;7.446;2023-01-28T10:43:45;7.83;;;6.90;;
36185;SDS011;22228;53.222;7.446;2023-01-28T10:46:10;8.57;;;7.17;;
36185;SDS011;22228;53.222;7.446;2023-01-28T10:49:01;7.83;;;7.23;;
36185;SDS011;22228;53.222;7.446;2023-01-28T10:51:31;7.27;;;6.67;;
36185;SDS011;22228;53.222;7.446;2023-01-28T10:53:53;8.67;;;7.87;;
36185;SDS011;22228;53.222;7.446;2023-01-28T10:56:22;7.83;;;7.13;;
36185;SDS011;22228;53.222;7.446;2023-01-28T10:58:46;8.33;;;7.53;;
36185;SDS011;22228;53.222;7.446;2023-01-28T11:01:16;7.97;;;7.27;;
36185;SDS011;22228;53.222;7.446;2023-01-28T11:04:02;8.57;;;7.77;;
36185;SDS011;22228;53.222;7.446;2023-01-28T11:09:21;7.77;;;7.03;;
36185;SDS011;22228;53.222;7.446;2023-01-28T11:14:31;6.57;;;5.97;;
36185;SDS011;22228;53.222;7.446;2023-01-28T11:16:52;5.50;;;5.10;;
36185;SDS011;22228;53.222;7.446;2023-01-28T11:19:17;6.97;;;6.37;;
36185;SDS011;22228;53.222;7.446;2023-01-28T11:21:40;5.33;;;4.93;;
36185;SDS011;22228;53.222;7.446;2023-01-28T11:24:13;6.07;;;5.20;;
36185;SDS011;22228;53.222;7.446;2023-01-28T11:26:42;6.03;;;5.53;;
36185;SDS011;22228;53.222;7.446;2023-01-28T11:29:17;5.00;;;4.60;;
36185;SDS011;22228;53.222;7.446;2023-01-28T11:31:42;5.17;;;4.67;;
36185;SDS011;22228;53.222;7.446;2023-01-28T11:34:03;5.67;;;5.17;;
36185;SDS011;22228;53.222;7.446;2023-01-28T11:36:26;5.40;;;4.97;;
36185;SDS011;22228;53.222;7.446;2023-01-28T11:38:49;6.77;;;5.87;;
36185;SDS011;22228;53.222;7.446;2023-01-28T11:41:37;6.90;;;5.40;;
36185;SDS011;22228;53.222;7.446;2023-01-28T11:44:00;6.20;;;5.70;;
36185;SDS011;22228;53.222;7.446;2023-01-28T11:46:43;6.00;;;5.50;;
36185;SDS011;22228;53.222;7.446;2023-01-28T11:49:49;6.40;;;5.80;;
36185;SDS011;22228;53.222;7.446;2023-01-28T11:55:18;6.47;;;5.87;;
36185;SDS011;22228;53.222;7.446;2023-01-28T11:57:50;6.33;;;5.73;;
36185;SDS011;22228;53.222;7.446;2023-01-28T12:00:28;6.27;;;5.67;;
36185;SDS011;22228;53.222;7.446;2023-01-28T12:02:59;7.70;;;6.17;;
36185;SDS011;22228;53.222;7.446;2023-01-28T12:05:45;6.17;;;5.57;;
36185;SDS011;22228;53.222;7.446;2023-01-28T12:08:40;6.93;;;6.27;;
36185;SDS011;22228;53.222;7.446;2023-01-28T12:11:18;6.13;;;5.60;;
36185;SDS011;22228;53.222;7.446;2023-01-28T12:16:57;7.17;;;6.17;;
36185;SDS011;22228;53.222;7.446;2023-01-28T12:19:31;6.27;;;5.73;;
36185;SDS011;22228;53.222;7.446;2023-01-28T12:22:09;6.50;;;5.90;;
36185;SDS011;22228;53.222;7.446;2023-01-28T12:24:52;6.93;;;6.23;;
36185;SDS011;22228;53.222;7.446;2023-01-28T12:27:29;6.50;;;5.90;;
36185;SDS011;22228;53.222;7.446;2023-01-28T12:30:05;6.83;;;6.27;;
36185;SDS011;22228;53.222;7.446;2023-01-28T12:32:41;6.40;;;5.80;;
36185;SDS011;22228;53.222;7.446;2023-01-28T12:35:21;7.50;;;6.80;;
36185;SDS011;22228;53.222;7.446;2023-01-28T12:38:07;7.43;;;6.70;;
36185;SDS011;22228;53.222;7.446;2023-01-28T12:40:41;8.77;;;5.97;;
36185;SDS011;22228;53.222;7.446;2023-01-28T12:43:24;7.97;;;6.87;;
36185;SDS011;22228;53.222;7.446;2023-01-28T12:46:01;7.47;;;5.90;;
36185;SDS011;22228;53.222;7.446;2023-01-28T12:48:26;7.23;;;6.53;;
36185;SDS011;22228;53.222;7.446;2023-01-28T12:50:52;7.53;;;6.00;;
36185;SDS011;22228;53.222;7.446;2023-01-28T12:53:20;7.20;;;6.50;;
36185;SDS011;22228;53.222;7.446;2023-01-28T12:55:53;6.47;;;5.87;;
36185;SDS011;22228;53.222;7.446;2023-01-28T12:58:19;7.57;;;5.97;;
36185;SDS011;22228;53.222;7.446;2023-01-28T13:01:10;7.63;;;6.03;;
36185;SDS011;22228;53.222;7.446;2023-01-28T13:04:08;6.93;;;5.90;;
36185;SDS011;22228;53.222;7.446;2023-01-28T13:06:59;6.90;;;5.90;;
36185;SDS011;22228;53.222;7.446;2023-01-28T13:09:26;6.77;;;6.17;;
36185;SDS011;22228;53.222;7.446;2023-01-28T13:11:49;7.33;;;6.63;;
36185;SDS011;22228;53.222;7.446;2023-01-28T13:17:11;7.50;;;6.80;;
36185;SDS011;22228;53.222;7.446;2023-01-28T13:19:43;8.10;;;6.47;;
36185;SDS011;22228;53.222;7.446;2023-01-28T13:22:09;7.87;;;5.43;;
36185;SDS011;22228;53.222;7.446;2023-01-28T13:24:31;9.60;;;6.07;;
36185;SDS011;22228;53.222;7.446;2023-01-28T13:26:52;6.90;;;6.30;;
36185;SDS011;22228;53.222;7.446;2023-01-28T13:29:17;6.10;;;5.60;;
36185;SDS011;22228;53.222;7.446;2023-01-28T13:31:46;6.47;;;5.87;;
36185;SDS011;22228;53.222;7.446;2023-01-28T13:34:24;6.40;;;5.80;;
36185;SDS011;22228;53.222;7.446;2023-01-28T13:36:53;5.60;;;5.17;;
36185;SDS011;22228;53.222;7.446;2023-01-28T13:39:18;7.70;;;5.93;;
36185;SDS011;22228;53.222;7.446;2023-01-28T13:41:42;6.57;;;6.00;;
36185;SDS011;22228;53.222;7.446;2023-01-28T13:44:15;6.43;;;5.93;;
36185;SDS011;22228;53.222;7.446;2023-01-28T13:46:38;6.13;;;5.53;;
36185;SDS011;22228;53.222;7.446;2023-01-28T13:48:58;6.33;;;5.77;;
36185;SDS011;22228;53.222;7.446;2023-01-28T13:51:23;6.90;;;5.77;;
36185;SDS011;22228;53.222;7.446;2023-01-28T13:54:19;6.00;;;5.40;;
36185;SDS011;22228;53.222;7.446;2023-01-28T13:56:48;5.93;;;5.43;;
36185;SDS011;22228;53.222;7.446;2023-01-28T14:02:19;7.10;;;6.23;;
36185;SDS011;22228;53.222;7.446;2023-01-28T14:05:21;6.40;;;5.90;;
36185;SDS011;22228;53.222;7.446;2023-01-28T14:08:39;7.13;;;5.47;;
36185;SDS011;22228;53.222;7.446;2023-01-28T14:11:15;9.83;;;6.07;;
36185;SDS011;22228;53.222;7.446;2023-01-28T14:14:10;5.27;;;4.70;;
36185;SDS011;22228;53.222;7.446;2023-01-28T14:16:45;5.73;;;5.30;;
36185;SDS011;22228;53.222;7.446;2023-01-28T14:19:12;6.43;;;5.73;;
36185;SDS011;22228;53.222;7.446;2023-01-28T14:21:33;7.30;;;4.90;;
36185;SDS011;22228;53.222;7.446;2023-01-28T14:23:56;6.33;;;5.67;;
36185;SDS011;22228;53.222;7.446;2023-01-28T14:26:22;6.33;;;5.47;;
36185;SDS011;22228;53.222;7.446;2023-01-28T14:28:56;8.47;;;7.37;;
36185;SDS011;22228;53.222;7.446;2023-01-28T14:31:26;9.17;;;6.43;;
36185;SDS011;22228;53.222;7.446;2023-01-28T14:34:18;7.93;;;6.67;;
36185;SDS011;22228;53.222;7.446;2023-01-28T14:37:06;7.00;;;6.40;;
36185;SDS011;22228;53.222;7.446;2023-01-28T14:39:39;6.70;;;5.50;;
36185;SDS011;22228;53.222;7.446;2023-01-28T14:42:03;5.23;;;4.83;;
36185;SDS011;22228;53.222;7.446;2023-01-28T14:47:32;10.20;;;5.40;;
36185;SDS011;22228;53.222;7.446;2023-01-28T14:50:10;5.90;;;5.10;;
36185;SDS011;22228;53.222;7.446;2023-01-28T14:52:47;5.33;;;4.83;;
36185;SDS011;22228;53.222;7.446;2023-01-28T14:55:34;6.80;;;6.20;;
36185;SDS011;22228;53.222;7.446;2023-01-28T14:58:05;6.07;;;5.47;;
36185;SDS011;22228;53.222;7.446;2023-01-28T15:00:36;7.33;;;6.50;;
36185;SDS011;22228;53.222;7.446;2023-01-28T15:02:57;6.77;;;5.57;;
36185;SDS011;22228;53.222;7.446;2023-01-28T15:05:48;7.10;;;5.93;;
36185;SDS011;22228;53.222;7.446;2023-01-28T15:08:39;6.73;;;5.43;;
36185;SDS011;22228;53.222;7.446;2023-01-28T15:11:03;7.10;;;6.40;;
36185;SDS011;22228;53.222;7.446;2023-01-28T15:16:45;6.93;;;6.23;;
36185;SDS011;22228;53.222;7.446;2023-01-28T15:19:07;6.67;;;6.00;;
36185;SDS011;22228;53.222;7.446;2023-01-28T15:24:15;6.63;;;6.03;;
36185;SDS011;22228;53.222;7.446;2023-01-28T15:27:02;8.60;;;7.03;;
36185;SDS011;22228;53.222;7.446;2023-01-28T15:29:24;10.30;;;7.80;;
36185;SDS011;22228;53.222;7.446;2023-01-28T15:31:50;12.67;;;11.37;;
36185;SDS011;22228;53.222;7.446;2023-01-28T15:34:14;9.23;;;8.03;;
36185;SDS011;22228;53.222;7.446;2023-01-28T15:36:37;9.33;;;6.77;;
36185;SDS011;22228;53.222;7.446;2023-01-28T15:39:22;9.30;;;7.53;;
36185;SDS011;22228;53.222;7.446;2023-01-28T15:41:46;9.30;;;8.13;;
36185;SDS011;22228;53.222;7.446;2023-01-28T15:44:17;8.83;;;6.93;;
36185;SDS011;22228;53.222;7.446;2023-01-28T15:46:47;8.63;;;7.67;;
36185;SDS011;22228;53.222;7.446;2023-01-28T15:49:12;11.57;;;7.13;;
36185;SDS011;22228;53.222;7.446;2023-01-28T15:51:35;8.03;;;7.07;;
36185;SDS011;22228;53.222;7.446;2023-01-28T15:53:58;8.07;;;7.37;;
36185;SDS011;22228;53.222;7.446;2023-01-28T15:56:44;6.93;;;6.37;;
36185;SDS011;22228;53.222;7.446;2023-01-28T15:59:07;6.80;;;6.20;;
36185;SDS011;22228;53.222;7.446;2023-01-28T16:01:31;8.10;;;6.63;;
36185;SDS011;22228;53.222;7.446;2023-01-28T16:04:01;9.67;;;7.63;;
36185;SDS011;22228;53.222;7.446;2023-01-28T16:06:30;8.53;;;6.63;;
36185;SDS011;22228;53.222;7.446;2023-01-28T16:08:55;7.57;;;6.80;;
36185;SDS011;22228;53.222;7.446;2023-01-28T16:11:22;8.60;;;7.30;;
36185;SDS011;22228;53.222;7.446;2023-01-28T16:14:16;8.07;;;6.97;;
36185;SDS011;22228;53.222;7.446;2023-01-28T16:16:45;10.57;;;7.97;;
36185;SDS011;22228;53.222;7.446;2023-01-28T16:19:14;9.80;;;8.13;;
36185;SDS011;22228;53.222;7.446;2023-01-28T16:21:44;11.10;;;8.97;;
36185;SDS011;22228;53.222;7.446;2023-01-28T16:24:33;9.97;;;8.03;;
36185;SDS011;22228;53.222;7.446;2023-01-28T16:26:59;9.03;;;8.13;;
36185;SDS011;22228;53.222;7.446;2023-01-28T16:29:21;9.80;;;8.43;;
36185;SDS011;22228;53.222;7.446;2023-01-28T16:31:42;10.60;;;8.70;;
36185;SDS011;22228;53.222;7.446;2023-01-28T16:36:51;9.13;;;7.47;;
36185;SDS011;22228;53.222;7.446;2023-01-28T16:39:13;13.07;;;8.10;;
36185;SDS011;22228;53.222;7.446;2023-01-28T16:41:37;8.23;;;7.43;;
36185;SDS011;22228;53.222;7.446;2023-01-28T16:44:00;10.50;;;9.20;;
36185;SDS011;22228;53.222;7.446;2023-01-28T16:46:25;11.07;;;9.20;;
36185;SDS011;22228;53.222;7.446;2023-01-28T16:48:49;13.23;;;10.70;;
36185;SDS011;22228;53.222;7.446;2023-01-28T16:51:15;12.53;;;9.77;;
36185;SDS011;22228;53.222;7.446;2023-01-28T16:53:38;12.87;;;9.00;;
36185;SDS011;22228;53.222;7.446;2023-01-28T16:55:59;11.50;;;9.10;;
36185;SDS011;22228;53.222;7.446;2023-01-28T16:58:27;10.40;;;8.77;;
36185;SDS011;22228;53.222;7.446;2023-01-28T17:00:48;10.23;;;8.43;;
36185;SDS011;22228;53.222;7.446;2023-01-28T17:03:15;13.70;;;9.43;;
36185;SDS011;22228;53.222;7.446;2023-01-28T17:05:37;12.37;;;9.97;;
36185;SDS011;22228;53.222;7.446;2023-01-28T17:08:26;9.87;;;8.43;;
36185;SDS011;22228;53.222;7.446;2023-01-28T17:10:52;10.43;;;9.23;;
36185;SDS011;22228;53.222;7.446;2023-01-28T17:13:14;10.63;;;8.53;;
36185;SDS011;22228;53.222;7.446;2023-01-28T17:15:35;14.40;;;8.00;;
36185;SDS011;22228;53.222;7.446;2023-01-28T17:18:21;12.20;;;8.70;;
36185;SDS011;22228;53.222;7.446;2023-01-28T17:20:43;13.00;;;9.67;;
36185;SDS011;22228;53.222;7.446;2023-01-28T17:23:03;10.83;;;9.10;;
36185;SDS011;22228;53.222;7.446;2023-01-28T17:25:28;10.83;;;8.67;;
36185;SDS011;22228;53.222;7.446;2023-01-28T17:27:49;10.47;;;8.93;;
36185;SDS011;22228;53.222;7.446;2023-01-28T17:30:10;11.57;;;8.30;;
36185;SDS011;22228;53.222;7.446;2023-01-28T17:32:35;12.00;;;9.10;;
36185;SDS011;22228;53.222;7.446;2023-01-28T17:34:59;14.33;;;9.83;;
36185;SDS011;22228;53.222;7.446;2023-01-28T17:37:20;14.30;;;10.13;;
36185;SDS011;22228;53.222;7.446;2023-01-28T17:40:06;12.00;;;9.63;;
36185;SDS011;22228;53.222;7.446;2023-01-28T17:42:31;11.70;;;9.57;;
36185;SDS011;22228;53.222;7.446;2023-01-28T17:47:44;14.43;;;10.07;;
36185;SDS011;22228;53.222;7.446;2023-01-28T17:50:05;12.43;;;10.63;;
36185;SDS011;22228;53.222;7.446;2023-01-28T17:55:13;13.20;;;10.17;;
36185;SDS011;22228;53.222;7.446;2023-01-28T18:01:12;14.07;;;10.83;;
36185;SDS011;22228;53.222;7.446;2023-01-28T18:03:35;14.93;;;11.57;;
36185;SDS011;22228;53.222;7.446;2023-01-28T18:08:43;12.20;;;10.57;;
36185;SDS011;22228;53.222;7.446;2023-01-28T18:11:05;11.90;;;9.13;;
36185;SDS011;22228;53.222;7.446;2023-01-28T18:13:29;12.13;;;9.87;;
36185;SDS011;22228;53.222;7.446;2023-01-28T18:15:50;11.07;;;8.90;;
36185;SDS011;22228;53.222;7.446;2023-01-28T18:18:16;12.13;;;9.97;;
36185;SDS011;22228;53.222;7.446;2023-01-28T18:20:38;12.80;;;10.17;;
36185;SDS011;22228;53.222;7.446;2023-01-28T18:22:59;11.73;;;9.23;;
36185;SDS011;22228;53.222;7.446;2023-01-28T18:25:20;13.60;;;9.47;;
36185;SDS011;22228;53.222;7.446;2023-01-28T18:27:43;12.87;;;8.90;;
36185;SDS011;22228;53.222;7.446;2023-01-28T18:30:04;12.67;;;9.53;;
36185;SDS011;22228;53.222;7.446;2023-01-28T18:32:29;11.63;;;9.10;;
36185;SDS011;22228;53.222;7.446;2023-01-28T18:34:51;13.33;;;9.07;;
36185;SDS011;22228;53.222;7.446;2023-01-28T18:37:13;12.47;;;9.70;;
36185;SDS011;22228;53.222;7.446;2023-01-28T18:39:33;10.77;;;9.20;;
36185;SDS011;22228;53.222;7.446;2023-01-28T18:41:58;13.27;;;9.47;;
36185;SDS011;22228;53.222;7.446;2023-01-28T18:44:19;14.57;;;10.90;;
36185;SDS011;22228;53.222;7.446;2023-01-28T18:46:42;14.97;;;9.90;;
36185;SDS011;22228;53.222;7.446;2023-01-28T18:49:28;12.10;;;9.90;;
36185;SDS011;22228;53.222;7.446;2023-01-28T18:52:15;12.70;;;9.63;;
36185;SDS011;22228;53.222;7.446;2023-01-28T18:54:38;13.50;;;10.00;;
36185;SDS011;22228;53.222;7.446;2023-01-28T18:57:00;13.93;;;10.33;;
36185;SDS011;22228;53.222;7.446;2023-01-28T18:59:22;14.47;;;10.70;;
36185;SDS011;22228;53.222;7.446;2023-01-28T19:01:43;12.83;;;9.93;;
36185;SDS011;22228;53.222;7.446;2023-01-28T19:04:05;14.40;;;10.23;;